Monroe, Washington
Current Conditions -  °F | °C
As of 8:53 AM on Thursday 30 Oct 2014 (Local Time) from KPAE Reporting Station
Overcast Overcast  
Wind Chill: 59°   Ceiling: 8000
Heat Index: 59°   Visibility: 10mi
Dew Point: 47°   Wind: 7mph
Humidity: 64%   Direction: 150°SSE
Pressure: 29.87"   Gusts: NA
Location:  47.86°N, 121.97°W
Report Text: KPAE 301553Z 15006KT 10SM FEW055 SCT070 OVC080 15/08 A2987 RMK AO2 RAB39E48 SLP113 P0000 T01500083
Loading
Personal Weather Stations






























Interactive Weather Map
Tropical Storm Tracking
New forecast layout! Learn more

10-Day Weather Forecast

Advertisements
Track Severe Weather on mobile